sensor_id;sensor_type;location;lat;lon;timestamp;P1;durP1;ratioP1;P2;durP2;ratioP2
32876;SDS011;19226;51.600;8.034;2023-02-23T00:00:12;50.08;;;29.15;;
32876;SDS011;19226;51.600;8.034;2023-02-23T00:03:03;49.85;;;27.00;;
32876;SDS011;19226;51.600;8.034;2023-02-23T00:05:48;43.50;;;26.02;;
32876;SDS011;19226;51.600;8.034;2023-02-23T00:08:33;48.35;;;27.63;;
32876;SDS011;19226;51.600;8.034;2023-02-23T00:11:19;43.67;;;25.88;;
32876;SDS011;19226;51.600;8.034;2023-02-23T00:14:04;47.10;;;26.23;;
32876;SDS011;19226;51.600;8.034;2023-02-23T00:16:51;41.47;;;26.08;;
32876;SDS011;19226;51.600;8.034;2023-02-23T00:19:36;42.20;;;26.95;;
32876;SDS011;19226;51.600;8.034;2023-02-23T00:22:20;42.65;;;27.77;;
32876;SDS011;19226;51.600;8.034;2023-02-23T00:25:07;44.72;;;27.52;;
32876;SDS011;19226;51.600;8.034;2023-02-23T00:27:55;49.17;;;28.30;;
32876;SDS011;19226;51.600;8.034;2023-02-23T00:30:40;48.10;;;28.23;;
32876;SDS011;19226;51.600;8.034;2023-02-23T00:33:27;46.58;;;28.88;;
32876;SDS011;19226;51.600;8.034;2023-02-23T00:36:14;50.50;;;27.88;;
32876;SDS011;19226;51.600;8.034;2023-02-23T00:38:59;49.97;;;28.33;;
32876;SDS011;19226;51.600;8.034;2023-02-23T00:41:49;46.28;;;28.00;;
32876;SDS011;19226;51.600;8.034;2023-02-23T00:44:38;45.03;;;28.52;;
32876;SDS011;19226;51.600;8.034;2023-02-23T00:47:23;48.63;;;28.10;;
32876;SDS011;19226;51.600;8.034;2023-02-23T00:50:11;48.03;;;28.83;;
32876;SDS011;19226;51.600;8.034;2023-02-23T00:52:57;51.78;;;29.58;;
32876;SDS011;19226;51.600;8.034;2023-02-23T00:55:42;46.15;;;28.52;;
32876;SDS011;19226;51.600;8.034;2023-02-23T00:58:29;51.35;;;30.75;;
32876;SDS011;19226;51.600;8.034;2023-02-23T01:01:14;49.55;;;30.35;;
32876;SDS011;19226;51.600;8.034;2023-02-23T01:04:00;52.88;;;30.67;;
32876;SDS011;19226;51.600;8.034;2023-02-23T01:06:44;58.00;;;32.83;;
32876;SDS011;19226;51.600;8.034;2023-02-23T01:09:29;50.35;;;30.13;;
32876;SDS011;19226;51.600;8.034;2023-02-23T01:12:13;54.72;;;31.88;;
32876;SDS011;19226;51.600;8.034;2023-02-23T01:15:01;49.63;;;30.23;;
32876;SDS011;19226;51.600;8.034;2023-02-23T01:17:48;54.28;;;30.75;;
32876;SDS011;19226;51.600;8.034;2023-02-23T01:20:33;58.40;;;32.25;;
32876;SDS011;19226;51.600;8.034;2023-02-23T01:23:18;60.90;;;33.85;;
32876;SDS011;19226;51.600;8.034;2023-02-23T01:26:04;57.13;;;32.13;;
32876;SDS011;19226;51.600;8.034;2023-02-23T01:28:50;49.85;;;29.75;;
32876;SDS011;19226;51.600;8.034;2023-02-23T01:31:40;55.90;;;32.53;;
32876;SDS011;19226;51.600;8.034;2023-02-23T01:34:26;56.08;;;32.92;;
32876;SDS011;19226;51.600;8.034;2023-02-23T01:37:10;63.80;;;35.70;;
32876;SDS011;19226;51.600;8.034;2023-02-23T01:39:55;60.13;;;33.75;;
32876;SDS011;19226;51.600;8.034;2023-02-23T01:42:44;68.40;;;36.42;;
32876;SDS011;19226;51.600;8.034;2023-02-23T01:45:33;64.03;;;35.83;;
32876;SDS011;19226;51.600;8.034;2023-02-23T01:48:19;71.03;;;35.85;;
32876;SDS011;19226;51.600;8.034;2023-02-23T01:51:07;69.00;;;35.90;;
32876;SDS011;19226;51.600;8.034;2023-02-23T01:54:03;73.45;;;37.67;;
32876;SDS011;19226;51.600;8.034;2023-02-23T01:56:52;70.15;;;36.67;;
32876;SDS011;19226;51.600;8.034;2023-02-23T01:59:47;67.20;;;37.67;;
32876;SDS011;19226;51.600;8.034;2023-02-23T02:07:55;74.97;;;40.50;;
32876;SDS011;19226;51.600;8.034;2023-02-23T02:10:41;71.45;;;38.95;;
32876;SDS011;19226;51.600;8.034;2023-02-23T02:13:29;72.88;;;39.63;;
32876;SDS011;19226;51.600;8.034;2023-02-23T02:19:22;73.85;;;38.88;;
32876;SDS011;19226;51.600;8.034;2023-02-23T02:49:25;81.70;;;41.00;;
32876;SDS011;19226;51.600;8.034;2023-02-23T02:52:20;79.05;;;38.38;;
32876;SDS011;19226;51.600;8.034;2023-02-23T02:55:13;80.15;;;39.42;;
32876;SDS011;19226;51.600;8.034;2023-02-23T02:58:01;94.38;;;42.83;;
32876;SDS011;19226;51.600;8.034;2023-02-23T03:00:51;74.80;;;38.38;;
32876;SDS011;19226;51.600;8.034;2023-02-23T03:03:54;83.07;;;40.83;;
32876;SDS011;19226;51.600;8.034;2023-02-23T03:06:59;74.43;;;39.20;;
32876;SDS011;19226;51.600;8.034;2023-02-23T03:10:17;73.82;;;38.83;;
32876;SDS011;19226;51.600;8.034;2023-02-23T03:23:13;98.63;;;42.78;;
32876;SDS011;19226;51.600;8.034;2023-02-23T03:26:24;90.00;;;40.40;;
32876;SDS011;19226;51.600;8.034;2023-02-23T03:29:47;83.97;;;40.45;;
32876;SDS011;19226;51.600;8.034;2023-02-23T03:33:16;77.28;;;38.58;;
32876;SDS011;19226;51.600;8.034;2023-02-23T03:36:26;74.07;;;38.45;;
32876;SDS011;19226;51.600;8.034;2023-02-23T03:39:38;87.22;;;39.80;;
32876;SDS011;19226;51.600;8.034;2023-02-23T03:42:45;84.90;;;41.58;;
32876;SDS011;19226;51.600;8.034;2023-02-23T03:45:52;81.00;;;40.78;;
32876;SDS011;19226;51.600;8.034;2023-02-23T03:49:00;98.88;;;41.63;;
32876;SDS011;19226;51.600;8.034;2023-02-23T03:52:10;86.93;;;41.10;;
32876;SDS011;19226;51.600;8.034;2023-02-23T03:55:20;86.35;;;41.22;;
32876;SDS011;19226;51.600;8.034;2023-02-23T04:01:35;80.88;;;41.50;;
32876;SDS011;19226;51.600;8.034;2023-02-23T04:04:40;94.47;;;43.25;;
32876;SDS011;19226;51.600;8.034;2023-02-23T04:07:46;112.70;;;48.55;;
32876;SDS011;19226;51.600;8.034;2023-02-23T04:10:57;95.53;;;45.45;;
32876;SDS011;19226;51.600;8.034;2023-02-23T04:14:12;95.10;;;44.17;;
32876;SDS011;19226;51.600;8.034;2023-02-23T04:17:05;94.38;;;44.50;;
32876;SDS011;19226;51.600;8.034;2023-02-23T04:19:52;99.85;;;47.63;;
32876;SDS011;19226;51.600;8.034;2023-02-23T04:22:37;97.80;;;47.10;;
32876;SDS011;19226;51.600;8.034;2023-02-23T04:25:22;97.22;;;46.83;;
32876;SDS011;19226;51.600;8.034;2023-02-23T04:28:07;95.03;;;45.95;;
32876;SDS011;19226;51.600;8.034;2023-02-23T04:30:51;100.47;;;47.92;;
32876;SDS011;19226;51.600;8.034;2023-02-23T04:33:35;104.18;;;48.30;;
32876;SDS011;19226;51.600;8.034;2023-02-23T04:36:20;112.82;;;47.80;;
32876;SDS011;19226;51.600;8.034;2023-02-23T04:39:04;103.57;;;48.17;;
32876;SDS011;19226;51.600;8.034;2023-02-23T04:41:49;96.82;;;46.28;;
32876;SDS011;19226;51.600;8.034;2023-02-23T04:44:34;101.78;;;46.00;;
32876;SDS011;19226;51.600;8.034;2023-02-23T04:47:18;112.13;;;49.33;;
32876;SDS011;19226;51.600;8.034;2023-02-23T04:50:03;99.55;;;46.70;;
32876;SDS011;19226;51.600;8.034;2023-02-23T04:52:48;108.78;;;48.33;;
32876;SDS011;19226;51.600;8.034;2023-02-23T04:55:33;112.97;;;47.15;;
32876;SDS011;19226;51.600;8.034;2023-02-23T04:58:17;94.05;;;44.90;;
32876;SDS011;19226;51.600;8.034;2023-02-23T05:01:05;101.40;;;45.08;;
32876;SDS011;19226;51.600;8.034;2023-02-23T05:03:50;94.18;;;44.15;;
32876;SDS011;19226;51.600;8.034;2023-02-23T05:06:36;91.97;;;43.20;;
32876;SDS011;19226;51.600;8.034;2023-02-23T05:09:21;96.20;;;43.95;;
32876;SDS011;19226;51.600;8.034;2023-02-23T05:12:06;89.28;;;42.47;;
32876;SDS011;19226;51.600;8.034;2023-02-23T05:14:51;85.40;;;41.00;;
32876;SDS011;19226;51.600;8.034;2023-02-23T05:17:36;88.45;;;42.88;;
32876;SDS011;19226;51.600;8.034;2023-02-23T05:20:23;85.20;;;39.47;;
32876;SDS011;19226;51.600;8.034;2023-02-23T05:23:08;94.13;;;42.90;;
32876;SDS011;19226;51.600;8.034;2023-02-23T05:25:52;108.28;;;46.67;;
32876;SDS011;19226;51.600;8.034;2023-02-23T05:28:37;101.47;;;47.17;;
32876;SDS011;19226;51.600;8.034;2023-02-23T05:31:24;107.13;;;44.70;;
32876;SDS011;19226;51.600;8.034;2023-02-23T05:34:09;113.55;;;46.55;;
32876;SDS011;19226;51.600;8.034;2023-02-23T05:36:54;111.43;;;46.83;;
32876;SDS011;19226;51.600;8.034;2023-02-23T05:39:38;107.03;;;48.08;;
32876;SDS011;19226;51.600;8.034;2023-02-23T05:42:23;117.43;;;46.90;;
32876;SDS011;19226;51.600;8.034;2023-02-23T05:45:07;110.97;;;47.90;;
32876;SDS011;19226;51.600;8.034;2023-02-23T05:47:52;101.43;;;43.97;;
32876;SDS011;19226;51.600;8.034;2023-02-23T05:50:37;93.97;;;44.15;;
32876;SDS011;19226;51.600;8.034;2023-02-23T05:53:21;106.25;;;46.33;;
32876;SDS011;19226;51.600;8.034;2023-02-23T05:56:06;105.30;;;45.22;;
32876;SDS011;19226;51.600;8.034;2023-02-23T05:58:54;96.35;;;43.33;;
32876;SDS011;19226;51.600;8.034;2023-02-23T06:01:43;105.90;;;45.05;;
32876;SDS011;19226;51.600;8.034;2023-02-23T06:04:27;94.32;;;42.80;;
32876;SDS011;19226;51.600;8.034;2023-02-23T06:07:12;105.72;;;45.10;;
32876;SDS011;19226;51.600;8.034;2023-02-23T06:09:56;97.97;;;44.47;;
32876;SDS011;19226;51.600;8.034;2023-02-23T06:12:41;103.68;;;46.42;;
32876;SDS011;19226;51.600;8.034;2023-02-23T06:15:25;113.45;;;47.88;;
32876;SDS011;19226;51.600;8.034;2023-02-23T06:18:10;107.80;;;47.65;;
32876;SDS011;19226;51.600;8.034;2023-02-23T06:20:57;94.78;;;45.60;;
32876;SDS011;19226;51.600;8.034;2023-02-23T06:23:43;111.68;;;47.05;;
32876;SDS011;19226;51.600;8.034;2023-02-23T06:26:28;104.45;;;48.20;;
32876;SDS011;19226;51.600;8.034;2023-02-23T06:29:13;104.47;;;47.92;;
32876;SDS011;19226;51.600;8.034;2023-02-23T06:31:58;120.38;;;53.83;;
32876;SDS011;19226;51.600;8.034;2023-02-23T06:34:43;133.75;;;55.63;;
32876;SDS011;19226;51.600;8.034;2023-02-23T06:37:27;139.48;;;56.30;;
32876;SDS011;19226;51.600;8.034;2023-02-23T06:40:12;123.82;;;53.22;;
32876;SDS011;19226;51.600;8.034;2023-02-23T06:42:57;123.97;;;50.17;;
32876;SDS011;19226;51.600;8.034;2023-02-23T06:45:42;125.97;;;52.80;;
32876;SDS011;19226;51.600;8.034;2023-02-23T06:48:26;103.97;;;46.85;;
32876;SDS011;19226;51.600;8.034;2023-02-23T06:51:11;101.40;;;46.05;;
32876;SDS011;19226;51.600;8.034;2023-02-23T06:53:56;102.60;;;44.92;;
32876;SDS011;19226;51.600;8.034;2023-02-23T06:56:40;95.93;;;43.58;;
32876;SDS011;19226;51.600;8.034;2023-02-23T06:59:25;97.40;;;44.50;;
32876;SDS011;19226;51.600;8.034;2023-02-23T07:02:11;120.55;;;52.85;;
32876;SDS011;19226;51.600;8.034;2023-02-23T07:04:56;108.40;;;49.92;;
32876;SDS011;19226;51.600;8.034;2023-02-23T07:07:41;109.00;;;50.67;;
32876;SDS011;19226;51.600;8.034;2023-02-23T07:10:26;119.35;;;54.40;;
32876;SDS011;19226;51.600;8.034;2023-02-23T07:13:10;124.97;;;54.25;;
32876;SDS011;19226;51.600;8.034;2023-02-23T07:15:56;122.55;;;53.20;;
32876;SDS011;19226;51.600;8.034;2023-02-23T07:18:40;119.03;;;53.10;;
32876;SDS011;19226;51.600;8.034;2023-02-23T07:21:24;115.72;;;53.08;;
32876;SDS011;19226;51.600;8.034;2023-02-23T07:24:09;114.97;;;53.70;;
32876;SDS011;19226;51.600;8.034;2023-02-23T07:26:53;116.43;;;55.38;;
32876;SDS011;19226;51.600;8.034;2023-02-23T07:29:39;126.25;;;52.67;;
32876;SDS011;19226;51.600;8.034;2023-02-23T07:32:23;125.40;;;52.97;;
32876;SDS011;19226;51.600;8.034;2023-02-23T07:35:08;135.63;;;53.05;;
32876;SDS011;19226;51.600;8.034;2023-02-23T07:37:53;113.88;;;49.20;;
32876;SDS011;19226;51.600;8.034;2023-02-23T07:40:38;112.05;;;48.60;;
32876;SDS011;19226;51.600;8.034;2023-02-23T07:43:23;118.95;;;51.30;;
32876;SDS011;19226;51.600;8.034;2023-02-23T07:46:07;106.72;;;47.67;;
32876;SDS011;19226;51.600;8.034;2023-02-23T07:48:52;111.95;;;49.03;;
32876;SDS011;19226;51.600;8.034;2023-02-23T07:51:37;118.45;;;50.40;;
32876;SDS011;19226;51.600;8.034;2023-02-23T07:54:23;108.82;;;49.72;;
32876;SDS011;19226;51.600;8.034;2023-02-23T07:57:08;132.73;;;53.58;;
32876;SDS011;19226;51.600;8.034;2023-02-23T07:59:54;122.03;;;52.15;;
32876;SDS011;19226;51.600;8.034;2023-02-23T08:02:38;116.28;;;50.88;;
32876;SDS011;19226;51.600;8.034;2023-02-23T08:05:22;111.93;;;48.72;;
32876;SDS011;19226;51.600;8.034;2023-02-23T08:08:08;103.55;;;49.15;;
32876;SDS011;19226;51.600;8.034;2023-02-23T08:11:00;119.15;;;51.72;;
32876;SDS011;19226;51.600;8.034;2023-02-23T08:13:46;128.43;;;52.70;;
32876;SDS011;19226;51.600;8.034;2023-02-23T08:16:31;114.13;;;53.15;;
32876;SDS011;19226;51.600;8.034;2023-02-23T08:19:16;126.57;;;55.72;;
32876;SDS011;19226;51.600;8.034;2023-02-23T08:22:01;125.80;;;55.58;;
32876;SDS011;19226;51.600;8.034;2023-02-23T08:24:46;135.57;;;55.88;;
32876;SDS011;19226;51.600;8.034;2023-02-23T08:27:34;130.13;;;55.65;;
32876;SDS011;19226;51.600;8.034;2023-02-23T08:33:05;186.73;;;61.85;;
32876;SDS011;19226;51.600;8.034;2023-02-23T08:35:50;128.18;;;55.63;;
32876;SDS011;19226;51.600;8.034;2023-02-23T08:38:36;130.90;;;56.47;;
32876;SDS011;19226;51.600;8.034;2023-02-23T08:41:20;145.48;;;58.65;;
32876;SDS011;19226;51.600;8.034;2023-02-23T08:44:05;127.22;;;54.92;;
32876;SDS011;19226;51.600;8.034;2023-02-23T08:46:49;160.93;;;60.92;;
32876;SDS011;19226;51.600;8.034;2023-02-23T08:49:34;129.32;;;56.80;;
32876;SDS011;19226;51.600;8.034;2023-02-23T08:52:19;129.40;;;56.80;;
32876;SDS011;19226;51.600;8.034;2023-02-23T08:55:04;133.65;;;57.33;;
32876;SDS011;19226;51.600;8.034;2023-02-23T08:57:48;122.90;;;55.38;;
32876;SDS011;19226;51.600;8.034;2023-02-23T09:00:33;130.40;;;56.33;;
32876;SDS011;19226;51.600;8.034;2023-02-23T09:03:18;122.47;;;54.75;;
32876;SDS011;19226;51.600;8.034;2023-02-23T09:06:05;141.13;;;56.95;;
32876;SDS011;19226;51.600;8.034;2023-02-23T09:08:55;140.82;;;58.17;;
32876;SDS011;19226;51.600;8.034;2023-02-23T09:11:40;126.95;;;56.83;;
32876;SDS011;19226;51.600;8.034;2023-02-23T09:14:25;128.63;;;55.67;;
32876;SDS011;19226;51.600;8.034;2023-02-23T09:17:10;117.57;;;54.90;;
32876;SDS011;19226;51.600;8.034;2023-02-23T09:19:55;120.50;;;55.00;;
32876;SDS011;19226;51.600;8.034;2023-02-23T09:22:41;117.50;;;55.25;;
32876;SDS011;19226;51.600;8.034;2023-02-23T09:25:31;116.18;;;54.30;;
32876;SDS011;19226;51.600;8.034;2023-02-23T09:28:16;133.18;;;56.72;;
32876;SDS011;19226;51.600;8.034;2023-02-23T09:31:10;132.05;;;56.80;;
32876;SDS011;19226;51.600;8.034;2023-02-23T09:33:57;134.90;;;55.83;;
32876;SDS011;19226;51.600;8.034;2023-02-23T09:36:43;134.35;;;57.55;;
32876;SDS011;19226;51.600;8.034;2023-02-23T09:39:28;126.57;;;54.83;;
32876;SDS011;19226;51.600;8.034;2023-02-23T09:42:19;142.85;;;57.83;;
32876;SDS011;19226;51.600;8.034;2023-02-23T09:48:12;142.30;;;59.28;;
32876;SDS011;19226;51.600;8.034;2023-02-23T09:50:58;138.50;;;56.78;;
32876;SDS011;19226;51.600;8.034;2023-02-23T09:53:44;137.88;;;54.80;;
32876;SDS011;19226;51.600;8.034;2023-02-23T09:56:37;134.57;;;56.60;;
32876;SDS011;19226;51.600;8.034;2023-02-23T09:59:24;147.45;;;57.38;;
32876;SDS011;19226;51.600;8.034;2023-02-23T10:05:20;140.30;;;56.25;;
32876;SDS011;19226;51.600;8.034;2023-02-23T10:08:07;139.60;;;58.03;;
32876;SDS011;19226;51.600;8.034;2023-02-23T10:20:12;144.55;;;55.80;;
32876;SDS011;19226;51.600;8.034;2023-02-23T10:23:03;146.07;;;57.30;;
32876;SDS011;19226;51.600;8.034;2023-02-23T10:25:52;149.52;;;58.90;;
32876;SDS011;19226;51.600;8.034;2023-02-23T10:28:42;154.05;;;58.28;;
32876;SDS011;19226;51.600;8.034;2023-02-23T10:31:29;147.50;;;59.92;;
32876;SDS011;19226;51.600;8.034;2023-02-23T10:34:24;144.30;;;57.50;;
32876;SDS011;19226;51.600;8.034;2023-02-23T10:37:11;145.32;;;58.50;;
32876;SDS011;19226;51.600;8.034;2023-02-23T10:39:59;154.63;;;59.45;;
32876;SDS011;19226;51.600;8.034;2023-02-23T10:42:43;140.45;;;60.85;;
32876;SDS011;19226;51.600;8.034;2023-02-23T10:45:28;143.35;;;58.33;;
32876;SDS011;19226;51.600;8.034;2023-02-23T10:48:18;148.15;;;58.45;;
32876;SDS011;19226;51.600;8.034;2023-02-23T10:51:05;131.37;;;55.27;;
32876;SDS011;19226;51.600;8.034;2023-02-23T10:53:55;131.40;;;56.97;;
32876;SDS011;19226;51.600;8.034;2023-02-23T10:56:43;137.18;;;55.17;;
32876;SDS011;19226;51.600;8.034;2023-02-23T10:59:29;144.82;;;56.53;;
32876;SDS011;19226;51.600;8.034;2023-02-23T11:02:15;128.32;;;55.03;;
32876;SDS011;19226;51.600;8.034;2023-02-23T11:14:15;130.00;;;52.90;;
32876;SDS011;19226;51.600;8.034;2023-02-23T11:16:59;124.60;;;52.65;;
32876;SDS011;19226;51.600;8.034;2023-02-23T11:19:44;122.88;;;51.67;;
32876;SDS011;19226;51.600;8.034;2023-02-23T11:22:29;132.02;;;54.60;;
32876;SDS011;19226;51.600;8.034;2023-02-23T11:25:23;131.02;;;53.75;;
32876;SDS011;19226;51.600;8.034;2023-02-23T11:28:20;125.93;;;53.25;;
32876;SDS011;19226;51.600;8.034;2023-02-23T11:31:14;126.47;;;51.28;;
32876;SDS011;19226;51.600;8.034;2023-02-23T11:34:03;117.32;;;49.38;;
32876;SDS011;19226;51.600;8.034;2023-02-23T11:37:03;115.35;;;49.35;;
32876;SDS011;19226;51.600;8.034;2023-02-23T11:40:02;106.20;;;45.63;;
32876;SDS011;19226;51.600;8.034;2023-02-23T11:45:51;110.88;;;45.55;;
32876;SDS011;19226;51.600;8.034;2023-02-23T11:51:35;93.65;;;41.75;;
32876;SDS011;19226;51.600;8.034;2023-02-23T11:54:26;80.10;;;39.47;;
32876;SDS011;19226;51.600;8.034;2023-02-23T11:57:20;85.68;;;40.38;;
32876;SDS011;19226;51.600;8.034;2023-02-23T12:00:19;79.50;;;37.45;;
32876;SDS011;19226;51.600;8.034;2023-02-23T12:03:14;86.40;;;39.33;;
32876;SDS011;19226;51.600;8.034;2023-02-23T12:06:04;84.75;;;37.42;;
32876;SDS011;19226;51.600;8.034;2023-02-23T12:08:49;71.03;;;35.78;;
32876;SDS011;19226;51.600;8.034;2023-02-23T12:11:39;66.60;;;34.67;;
32876;SDS011;19226;51.600;8.034;2023-02-23T12:14:31;75.97;;;35.30;;
32876;SDS011;19226;51.600;8.034;2023-02-23T12:17:25;70.38;;;33.97;;
32876;SDS011;19226;51.600;8.034;2023-02-23T12:23:05;69.18;;;35.13;;
32876;SDS011;19226;51.600;8.034;2023-02-23T12:25:57;73.95;;;34.47;;
32876;SDS011;19226;51.600;8.034;2023-02-23T12:28:59;68.95;;;33.75;;
32876;SDS011;19226;51.600;8.034;2023-02-23T12:31:59;70.90;;;35.35;;
32876;SDS011;19226;51.600;8.034;2023-02-23T12:34:51;73.90;;;36.47;;
32876;SDS011;19226;51.600;8.034;2023-02-23T12:37:46;80.03;;;37.45;;
32876;SDS011;19226;51.600;8.034;2023-02-23T12:40:33;78.28;;;35.90;;
32876;SDS011;19226;51.600;8.034;2023-02-23T12:43:29;78.00;;;37.33;;
32876;SDS011;19226;51.600;8.034;2023-02-23T12:46:20;82.35;;;36.60;;
32876;SDS011;19226;51.600;8.034;2023-02-23T12:49:27;80.40;;;36.70;;
32876;SDS011;19226;51.600;8.034;2023-02-23T12:52:27;77.10;;;36.75;;
32876;SDS011;19226;51.600;8.034;2023-02-23T12:55:18;71.10;;;33.88;;
32876;SDS011;19226;51.600;8.034;2023-02-23T12:58:16;68.85;;;32.25;;
32876;SDS011;19226;51.600;8.034;2023-02-23T13:01:14;70.22;;;33.22;;
32876;SDS011;19226;51.600;8.034;2023-02-23T13:16:44;54.08;;;23.60;;
32876;SDS011;19226;51.600;8.034;2023-02-23T13:19:35;51.55;;;24.00;;
32876;SDS011;19226;51.600;8.034;2023-02-23T13:22:36;51.13;;;23.20;;
32876;SDS011;19226;51.600;8.034;2023-02-23T13:32:08;57.13;;;22.33;;
32876;SDS011;19226;51.600;8.034;2023-02-23T13:34:56;51.35;;;20.92;;
32876;SDS011;19226;51.600;8.034;2023-02-23T13:40:50;54.20;;;21.85;;
32876;SDS011;19226;51.600;8.034;2023-02-23T13:43:44;54.22;;;21.17;;
32876;SDS011;19226;51.600;8.034;2023-02-23T13:46:47;54.63;;;22.00;;
32876;SDS011;19226;51.600;8.034;2023-02-23T13:52:43;57.30;;;22.42;;
32876;SDS011;19226;51.600;8.034;2023-02-23T13:58:31;55.53;;;22.50;;
32876;SDS011;19226;51.600;8.034;2023-02-23T14:01:17;57.17;;;21.13;;
32876;SDS011;19226;51.600;8.034;2023-02-23T14:04:48;57.22;;;22.35;;
32876;SDS011;19226;51.600;8.034;2023-02-23T14:07:24;56.35;;;23.25;;
32876;SDS011;19226;51.600;8.034;2023-02-23T14:10:19;59.03;;;22.45;;
32876;SDS011;19226;51.600;8.034;2023-02-23T14:16:17;58.40;;;23.20;;
32876;SDS011;19226;51.600;8.034;2023-02-23T14:22:11;62.75;;;23.35;;
32876;SDS011;19226;51.600;8.034;2023-02-23T14:29:08;56.33;;;22.80;;
32876;SDS011;19226;51.600;8.034;2023-02-23T14:31:32;54.53;;;22.25;;
32876;SDS011;19226;51.600;8.034;2023-02-23T14:34:19;51.33;;;21.10;;
32876;SDS011;19226;51.600;8.034;2023-02-23T14:37:16;50.65;;;21.63;;
32876;SDS011;19226;51.600;8.034;2023-02-23T14:40:22;53.90;;;22.42;;
32876;SDS011;19226;51.600;8.034;2023-02-23T14:43:58;47.72;;;20.80;;
32876;SDS011;19226;51.600;8.034;2023-02-23T14:46:25;52.30;;;20.05;;
32876;SDS011;19226;51.600;8.034;2023-02-23T14:49:14;52.70;;;21.23;;
32876;SDS011;19226;51.600;8.034;2023-02-23T14:52:23;53.75;;;21.02;;
32876;SDS011;19226;51.600;8.034;2023-02-23T14:55:20;62.28;;;22.13;;
32876;SDS011;19226;51.600;8.034;2023-02-23T14:58:25;56.00;;;21.50;;
32876;SDS011;19226;51.600;8.034;2023-02-23T15:01:35;61.40;;;21.33;;
32876;SDS011;19226;51.600;8.034;2023-02-23T15:04:22;52.67;;;20.55;;
32876;SDS011;19226;51.600;8.034;2023-02-23T15:07:13;56.28;;;19.77;;
32876;SDS011;19226;51.600;8.034;2023-02-23T15:10:01;58.53;;;20.77;;
32876;SDS011;19226;51.600;8.034;2023-02-23T15:16:25;55.67;;;20.20;;
32876;SDS011;19226;51.600;8.034;2023-02-23T15:19:18;57.20;;;19.27;;
32876;SDS011;19226;51.600;8.034;2023-02-23T15:22:06;46.63;;;19.33;;
32876;SDS011;19226;51.600;8.034;2023-02-23T15:24:51;53.88;;;20.05;;
32876;SDS011;19226;51.600;8.034;2023-02-23T15:27:39;56.88;;;20.05;;
32876;SDS011;19226;51.600;8.034;2023-02-23T15:30:27;50.42;;;20.38;;
32876;SDS011;19226;51.600;8.034;2023-02-23T15:33:15;51.15;;;19.05;;
32876;SDS011;19226;51.600;8.034;2023-02-23T15:36:07;51.50;;;20.05;;
32876;SDS011;19226;51.600;8.034;2023-02-23T15:38:57;48.22;;;18.95;;
32876;SDS011;19226;51.600;8.034;2023-02-23T15:41:45;56.92;;;19.23;;
32876;SDS011;19226;51.600;8.034;2023-02-23T15:44:32;46.90;;;18.67;;
32876;SDS011;19226;51.600;8.034;2023-02-23T15:47:19;51.28;;;20.15;;
32876;SDS011;19226;51.600;8.034;2023-02-23T15:50:15;48.92;;;18.45;;
32876;SDS011;19226;51.600;8.034;2023-02-23T15:53:15;51.92;;;19.15;;
32876;SDS011;19226;51.600;8.034;2023-02-23T15:56:10;45.50;;;18.17;;
32876;SDS011;19226;51.600;8.034;2023-02-23T15:59:04;51.40;;;18.50;;
32876;SDS011;19226;51.600;8.034;2023-02-23T16:01:53;42.28;;;17.02;;
32876;SDS011;19226;51.600;8.034;2023-02-23T16:04:40;44.70;;;17.63;;
32876;SDS011;19226;51.600;8.034;2023-02-23T16:07:35;39.78;;;16.58;;
32876;SDS011;19226;51.600;8.034;2023-02-23T16:10:21;47.55;;;17.30;;
32876;SDS011;19226;51.600;8.034;2023-02-23T16:13:09;47.10;;;18.70;;
32876;SDS011;19226;51.600;8.034;2023-02-23T16:15:56;53.00;;;18.67;;
32876;SDS011;19226;51.600;8.034;2023-02-23T16:18:40;47.20;;;18.13;;
32876;SDS011;19226;51.600;8.034;2023-02-23T16:21:27;45.72;;;17.52;;
32876;SDS011;19226;51.600;8.034;2023-02-23T16:24:16;42.20;;;16.60;;
32876;SDS011;19226;51.600;8.034;2023-02-23T16:27:05;51.35;;;17.85;;
32876;SDS011;19226;51.600;8.034;2023-02-23T16:29:54;46.97;;;18.13;;
32876;SDS011;19226;51.600;8.034;2023-02-23T16:38:55;51.35;;;17.65;;
32876;SDS011;19226;51.600;8.034;2023-02-23T16:41:53;47.97;;;18.15;;
32876;SDS011;19226;51.600;8.034;2023-02-23T16:44:41;52.03;;;19.08;;
32876;SDS011;19226;51.600;8.034;2023-02-23T16:47:34;50.38;;;19.02;;
32876;SDS011;19226;51.600;8.034;2023-02-23T16:50:23;60.20;;;19.60;;
32876;SDS011;19226;51.600;8.034;2023-02-23T16:53:09;60.60;;;21.00;;
32876;SDS011;19226;51.600;8.034;2023-02-23T16:55:55;49.50;;;19.05;;
32876;SDS011;19226;51.600;8.034;2023-02-23T16:58:44;62.58;;;20.95;;
32876;SDS011;19226;51.600;8.034;2023-02-23T17:01:31;54.35;;;19.52;;
32876;SDS011;19226;51.600;8.034;2023-02-23T17:04:16;50.67;;;19.50;;
32876;SDS011;19226;51.600;8.034;2023-02-23T17:07:04;60.00;;;20.17;;
32876;SDS011;19226;51.600;8.034;2023-02-23T17:09:48;61.13;;;21.10;;
32876;SDS011;19226;51.600;8.034;2023-02-23T17:12:33;62.70;;;20.80;;
32876;SDS011;19226;51.600;8.034;2023-02-23T17:15:17;60.20;;;21.23;;
32876;SDS011;19226;51.600;8.034;2023-02-23T17:18:03;66.18;;;21.70;;
32876;SDS011;19226;51.600;8.034;2023-02-23T17:20:49;61.42;;;21.13;;
32876;SDS011;19226;51.600;8.034;2023-02-23T17:23:37;70.65;;;23.45;;
32876;SDS011;19226;51.600;8.034;2023-02-23T17:26:31;66.97;;;21.85;;
32876;SDS011;19226;51.600;8.034;2023-02-23T17:29:15;63.63;;;22.85;;
32876;SDS011;19226;51.600;8.034;2023-02-23T17:31:59;63.17;;;21.70;;
32876;SDS011;19226;51.600;8.034;2023-02-23T17:34:44;63.15;;;21.15;;
32876;SDS011;19226;51.600;8.034;2023-02-23T17:37:32;69.30;;;21.70;;
32876;SDS011;19226;51.600;8.034;2023-02-23T17:40:23;50.15;;;19.80;;
32876;SDS011;19226;51.600;8.034;2023-02-23T17:43:11;62.00;;;19.73;;
32876;SDS011;19226;51.600;8.034;2023-02-23T17:45:56;66.38;;;20.38;;
32876;SDS011;19226;51.600;8.034;2023-02-23T17:48:40;65.88;;;21.95;;
32876;SDS011;19226;51.600;8.034;2023-02-23T17:51:29;60.95;;;20.40;;
32876;SDS011;19226;51.600;8.034;2023-02-23T17:54:14;70.78;;;20.48;;
32876;SDS011;19226;51.600;8.034;2023-02-23T17:56:59;66.18;;;19.70;;
32876;SDS011;19226;51.600;8.034;2023-02-23T17:59:43;63.10;;;20.40;;
32876;SDS011;19226;51.600;8.034;2023-02-23T18:02:28;70.68;;;20.00;;
32876;SDS011;19226;51.600;8.034;2023-02-23T18:05:12;68.38;;;19.52;;
32876;SDS011;19226;51.600;8.034;2023-02-23T18:07:57;71.00;;;19.70;;
32876;SDS011;19226;51.600;8.034;2023-02-23T18:10:42;63.15;;;18.48;;
32876;SDS011;19226;51.600;8.034;2023-02-23T18:13:27;55.65;;;18.20;;
32876;SDS011;19226;51.600;8.034;2023-02-23T18:16:12;58.70;;;19.92;;
32876;SDS011;19226;51.600;8.034;2023-02-23T18:18:57;55.53;;;17.48;;
32876;SDS011;19226;51.600;8.034;2023-02-23T18:21:41;63.05;;;17.63;;
32876;SDS011;19226;51.600;8.034;2023-02-23T18:24:26;64.10;;;19.17;;
32876;SDS011;19226;51.600;8.034;2023-02-23T18:27:14;65.28;;;18.05;;
32876;SDS011;19226;51.600;8.034;2023-02-23T18:29:58;60.67;;;17.95;;
32876;SDS011;19226;51.600;8.034;2023-02-23T18:32:43;66.22;;;18.88;;
32876;SDS011;19226;51.600;8.034;2023-02-23T18:35:30;59.95;;;18.70;;